HUAL Seoul — LADO6 — position and weather

sailwx.info

Track history (hours):
 
Tides and Currents Weather Stations Pressure Air Temp Water Temp Dewpoint Dewpoint Depression Visibility Wind Speed Wind Dir Waves Ship Positions

HUAL Seoul

Last reported at 2015-Feb-24 09:07 UTC. Time now 2015-Mar-04 18:53 UTC.
Position N 37°47' W 076°11'.
Warning: this ship's position is 8 days out of date.

Type: Cargo ship. MMSI: 257496000.

Date/timePositionNaut miles runAvg speedWind from/ knotsBaromVisibWave heightAir tempDewpointWater temp
2015-Feb-24 09:07N 37°47' W 076°11'1118.3
2015-Feb-24 08:33N 37°58' W 076°10'2018.7
2015-Feb-24 07:29N 38°17' W 076°17'3618.9
2015-Feb-24 05:33N 38°53' W 076°24'1515.1
2015-Feb-24 04:33N 39°08' W 076°24'1010.5
2015-Feb-24 03:33N 39°15' W 076°34'1 0.6
2015-Feb-24 02:33N 39°15' W 076°35'0 0.0
2015-Feb-24 01:33N 39°15' W 076°35'0 0.0
2015-Feb-24 00:33N 39°15' W 076°35'0 0.0
2015-Feb-23 23:33N 39°15' W 076°35'0 0.0
2015-Feb-23 22:33N 39°15' W 076°35'0 0.0
2015-Feb-23 21:33N 39°15' W 076°35'0 0.0
2015-Feb-23 20:33N 39°15' W 076°35'0 0.0
2015-Feb-23 19:33N 39°15' W 076°35'0 0.0
2015-Feb-23 18:33N 39°15' W 076°35'0 0.0
2015-Feb-23 17:33N 39°15' W 076°35'0 0.0
2015-Feb-23 16:33N 39°15' W 076°35'0 0.0
2015-Feb-23 15:33N 39°15' W 076°35'0 0.0
2015-Feb-23 14:33N 39°15' W 076°35'0 0.0
2015-Feb-23 13:33N 39°15' W 076°35'0 0.0
2015-Feb-23 12:33N 39°15' W 076°35'0 0.0
2015-Feb-23 11:33N 39°15' W 076°35'0 0.0
2015-Feb-23 10:33N 39°15' W 076°35'0 0.0
2015-Feb-23 09:33N 39°15' W 076°35'0 0.0
2015-Feb-23 08:33N 39°15' W 076°35'0 0.0
2015-Feb-23 07:33N 39°15' W 076°35'0 0.0
2015-Feb-23 06:33N 39°15' W 076°35'0 0.0
2015-Feb-23 05:33N 39°15' W 076°35'0 0.0
2015-Feb-23 04:33N 39°15' W 076°35'0 0.0
2015-Feb-23 03:33N 39°15' W 076°35'0 0.0
2015-Feb-23 02:33N 39°15' W 076°35'0 0.2
2015-Feb-23 01:34N 39°15' W 076°34'3 3.0
2015-Feb-23 00:34N 39°13' W 076°32'6 6.3
2015-Feb-22 23:33N 39°10' W 076°24'9 8.8
2015-Feb-22 22:33N 39°14' W 076°14'1313.0
2015-Feb-22 21:34N 39°24' W 076°03'1110.7
2015-Feb-22 20:33N 39°31' W 075°53'9 9.3
2015-Feb-22 19:34N 39°33' W 075°41'6 6.3
2015-Feb-22 18:33N 39°36' W 075°34'7 7.1
2015-Feb-22 17:34N 39°43' W 075°31'0 0.0
2015-Feb-22 16:32N 39°43' W 075°31'0 0.0
2015-Feb-22 15:32N 39°43' W 075°31'0 0.0
2015-Feb-22 14:32N 39°43' W 075°31'0 0.0
2015-Feb-22 13:32N 39°43' W 075°31'0 0.0
2015-Feb-22 12:32N 39°43' W 075°31'0 0.0
2015-Feb-22 11:32N 39°43' W 075°31'0 0.0
2015-Feb-22 10:32N 39°43' W 075°31'0 0.0
2015-Feb-22 09:32N 39°43' W 075°31'0 0.0
2015-Feb-22 08:32N 39°43' W 075°31'0 0.0
2015-Feb-22 07:32N 39°43' W 075°31'0 0.0
2015-Feb-22 06:32N 39°43' W 075°31'0 0.0
2015-Feb-22 05:12N 39°43' W 075°31'0 0.0
2015-Feb-22 04:31N 39°43' W 075°31'0 0.0
2015-Feb-22 03:31N 39°43' W 075°31'0 0.0
2015-Feb-22 02:31N 39°43' W 075°31'0 0.0
2015-Feb-22 01:31N 39°43' W 075°31'0 0.0
2015-Feb-22 00:31N 39°43' W 075°31'0 0.0
2015-Feb-21 23:31N 39°43' W 075°31'0 0.0
2015-Feb-21 22:31N 39°43' W 075°31'0 0.0
2015-Feb-21 21:31N 39°43' W 075°31'14 0.5
2015-Feb-20 14:21N 39°51' W 075°16'66 5.1
2015-Feb-20 01:27N 39°34' W 073°53'1516.1
2015-Feb-20 00:31N 39°49' W 073°52'3113.3
2015-Feb-19 22:10N 40°20' W 073°49'8 8.9
2015-Feb-19 21:19N 40°27' W 073°51'911.8
2015-Feb-19 20:33N 40°32' W 074°01'9 8.5
2015-Feb-19 19:33N 40°39' W 074°07'3 3.4
2015-Feb-19 18:33N 40°42' W 074°09'0 0.0
2015-Feb-19 17:28N 40°42' W 074°09'0 0.0
2015-Feb-19 16:28N 40°42' W 074°09'0 0.0
2015-Feb-19 15:28N 40°42' W 074°09'0 0.0
2015-Feb-19 14:31N 40°42' W 074°09'0 0.0
2015-Feb-19 13:31N 40°42' W 074°09'0 0.0
2015-Feb-19 12:28N 40°42' W 074°09'0 0.0
2015-Feb-19 11:29N 40°42' W 074°09'2 1.8
2015-Feb-19 10:34N 40°40' W 074°08'5 4.7
2015-Feb-19 09:33N 40°38' W 074°03'1110.7
2015-Feb-19 08:34N 40°29' W 073°55'7 6.9
2015-Feb-19 07:33N 40°25' W 073°47'7 7.3
2015-Feb-19 06:33N 40°18' W 073°46'  
2015-Feb-16 09:29N 31°06' W 081°20'25913.0
2015-Feb-15 13:33N 27°02' W 079°43'1716.5
2015-Feb-15 12:33N 26°45' W 079°44'1615.8
2015-Feb-15 11:33N 26°30' W 079°46'1615.8
2015-Feb-15 10:33N 26°14' W 079°48'1616.0
2015-Feb-15 09:33N 25°58' W 079°49'1615.8
2015-Feb-15 08:33N 25°42' W 079°52'1616.1
2015-Feb-15 07:33N 25°27' W 079°56'1615.9
2015-Feb-15 06:31N 25°12' W 080°04'  
Track history (hours):
 
Tides and Currents Weather Stations Pressure Air Temp Water Temp Dewpoint Dewpoint Depression Visibility Wind Speed Wind Dir Waves Ship Positions

HUAL Seoul

Last reported at 2015-Feb-24 09:07 UTC. Time now 2015-Mar-04 18:53 UTC.
Position N 37°47' W 076°11'.
Warning: this ship's position is 8 days out of date.

Type: Cargo ship. MMSI: 257496000.

Date/timePositionNaut miles runAvg speedWind from/ knotsBaromVisibWave heightAir tempDewpointWater temp
2015-Feb-24 09:07N 37°47' W 076°11'1118.3
2015-Feb-24 08:33N 37°58' W 076°10'2018.7
2015-Feb-24 07:29N 38°17' W 076°17'3618.9
2015-Feb-24 05:33N 38°53' W 076°24'1515.1
2015-Feb-24 04:33N 39°08' W 076°24'1010.5
2015-Feb-24 03:33N 39°15' W 076°34'1 0.6
2015-Feb-24 02:33N 39°15' W 076°35'0 0.0
2015-Feb-24 01:33N 39°15' W 076°35'0 0.0
2015-Feb-24 00:33N 39°15' W 076°35'0 0.0
2015-Feb-23 23:33N 39°15' W 076°35'0 0.0
2015-Feb-23 22:33N 39°15' W 076°35'0 0.0
2015-Feb-23 21:33N 39°15' W 076°35'0 0.0
2015-Feb-23 20:33N 39°15' W 076°35'0 0.0
2015-Feb-23 19:33N 39°15' W 076°35'0 0.0
2015-Feb-23 18:33N 39°15' W 076°35'0 0.0
2015-Feb-23 17:33N 39°15' W 076°35'0 0.0
2015-Feb-23 16:33N 39°15' W 076°35'0 0.0
2015-Feb-23 15:33N 39°15' W 076°35'0 0.0
2015-Feb-23 14:33N 39°15' W 076°35'0 0.0
2015-Feb-23 13:33N 39°15' W 076°35'0 0.0
2015-Feb-23 12:33N 39°15' W 076°35'0 0.0
2015-Feb-23 11:33N 39°15' W 076°35'0 0.0
2015-Feb-23 10:33N 39°15' W 076°35'0 0.0
2015-Feb-23 09:33N 39°15' W 076°35'0 0.0
2015-Feb-23 08:33N 39°15' W 076°35'0 0.0
2015-Feb-23 07:33N 39°15' W 076°35'0 0.0
2015-Feb-23 06:33N 39°15' W 076°35'0 0.0
2015-Feb-23 05:33N 39°15' W 076°35'0 0.0
2015-Feb-23 04:33N 39°15' W 076°35'0 0.0
2015-Feb-23 03:33N 39°15' W 076°35'0 0.0
2015-Feb-23 02:33N 39°15' W 076°35'0 0.2
2015-Feb-23 01:34N 39°15' W 076°34'3 3.0
2015-Feb-23 00:34N 39°13' W 076°32'6 6.3
2015-Feb-22 23:33N 39°10' W 076°24'9 8.8
2015-Feb-22 22:33N 39°14' W 076°14'1313.0
2015-Feb-22 21:34N 39°24' W 076°03'1110.7
2015-Feb-22 20:33N 39°31' W 075°53'9 9.3
2015-Feb-22 19:34N 39°33' W 075°41'6 6.3
2015-Feb-22 18:33N 39°36' W 075°34'7 7.1
2015-Feb-22 17:34N 39°43' W 075°31'0 0.0
2015-Feb-22 16:32N 39°43' W 075°31'0 0.0
2015-Feb-22 15:32N 39°43' W 075°31'0 0.0
2015-Feb-22 14:32N 39°43' W 075°31'0 0.0
2015-Feb-22 13:32N 39°43' W 075°31'0 0.0
2015-Feb-22 12:32N 39°43' W 075°31'0 0.0
2015-Feb-22 11:32N 39°43' W 075°31'0 0.0
2015-Feb-22 10:32N 39°43' W 075°31'0 0.0
2015-Feb-22 09:32N 39°43' W 075°31'0 0.0
2015-Feb-22 08:32N 39°43' W 075°31'0 0.0
2015-Feb-22 07:32N 39°43' W 075°31'0 0.0
2015-Feb-22 06:32N 39°43' W 075°31'0 0.0
2015-Feb-22 05:12N 39°43' W 075°31'0 0.0
2015-Feb-22 04:31N 39°43' W 075°31'0 0.0
2015-Feb-22 03:31N 39°43' W 075°31'0 0.0
2015-Feb-22 02:31N 39°43' W 075°31'0 0.0
2015-Feb-22 01:31N 39°43' W 075°31'0 0.0
2015-Feb-22 00:31N 39°43' W 075°31'0 0.0
2015-Feb-21 23:31N 39°43' W 075°31'0 0.0
2015-Feb-21 22:31N 39°43' W 075°31'0 0.0
2015-Feb-21 21:31N 39°43' W 075°31'14 0.5
2015-Feb-20 14:21N 39°51' W 075°16'66 5.1
2015-Feb-20 01:27N 39°34' W 073°53'1516.1
2015-Feb-20 00:31N 39°49' W 073°52'3113.3
2015-Feb-19 22:10N 40°20' W 073°49'8 8.9
2015-Feb-19 21:19N 40°27' W 073°51'911.8
2015-Feb-19 20:33N 40°32' W 074°01'9 8.5
2015-Feb-19 19:33N 40°39' W 074°07'3 3.4
2015-Feb-19 18:33N 40°42' W 074°09'0 0.0
2015-Feb-19 17:28N 40°42' W 074°09'0 0.0
2015-Feb-19 16:28N 40°42' W 074°09'0 0.0
2015-Feb-19 15:28N 40°42' W 074°09'0 0.0
2015-Feb-19 14:31N 40°42' W 074°09'0 0.0
2015-Feb-19 13:31N 40°42' W 074°09'0 0.0
2015-Feb-19 12:28N 40°42' W 074°09'0 0.0
2015-Feb-19 11:29N 40°42' W 074°09'2 1.8
2015-Feb-19 10:34N 40°40' W 074°08'5 4.7
2015-Feb-19 09:33N 40°38' W 074°03'1110.7
2015-Feb-19 08:34N 40°29' W 073°55'7 6.9
2015-Feb-19 07:33N 40°25' W 073°47'7 7.3
2015-Feb-19 06:33N 40°18' W 073°46'  
2015-Feb-16 09:29N 31°06' W 081°20'25913.0
2015-Feb-15 13:33N 27°02' W 079°43'1716.5
2015-Feb-15 12:33N 26°45' W 079°44'1615.8
2015-Feb-15 11:33N 26°30' W 079°46'1615.8
2015-Feb-15 10:33N 26°14' W 079°48'1616.0
2015-Feb-15 09:33N 25°58' W 079°49'1615.8
2015-Feb-15 08:33N 25°42' W 079°52'1616.1
2015-Feb-15 07:33N 25°27' W 079°56'1615.9
2015-Feb-15 06:31N 25°12' W 080°04'  

Dump ship's entire track history